createdAt,value
2017-06-13T00:00:06.794Z,3.03
2017-06-13T00:02:35.399Z,2.50
2017-06-13T00:05:03.591Z,3.30
2017-06-13T00:07:31.770Z,2.90
2017-06-13T00:10:00.312Z,3.83
2017-06-13T00:12:28.548Z,3.13
2017-06-13T00:14:57.501Z,3.17
2017-06-13T00:17:26.015Z,3.20
2017-06-13T00:19:54.327Z,2.77
2017-06-13T00:22:22.678Z,2.70
2017-06-13T00:24:51.297Z,2.17
2017-06-13T00:27:19.517Z,2.50
2017-06-13T00:29:47.726Z,2.40
2017-06-13T00:32:16.339Z,2.77
2017-06-13T00:34:44.556Z,2.60
2017-06-13T00:37:12.751Z,3.17
2017-06-13T00:39:41.403Z,3.00
2017-06-13T00:42:09.682Z,2.83
2017-06-13T00:44:37.870Z,3.73
2017-06-13T00:47:07.229Z,3.07
2017-06-13T00:49:35.422Z,2.90
2017-06-13T00:52:03.596Z,3.03
2017-06-13T00:54:32.158Z,2.60
2017-06-13T00:57:00.373Z,3.00
2017-06-13T00:59:28.576Z,3.00
2017-06-13T01:01:57.108Z,3.30
2017-06-13T01:04:25.284Z,2.53
2017-06-13T01:06:54.260Z,3.13
2017-06-13T01:09:22.863Z,3.40
2017-06-13T01:11:51.784Z,2.70
2017-06-13T01:14:19.976Z,3.30
2017-06-13T01:16:48.587Z,2.90
2017-06-13T01:19:16.770Z,3.23
2017-06-13T01:21:44.988Z,3.97
2017-06-13T01:24:13.609Z,3.30
2017-06-13T01:26:41.783Z,2.57
2017-06-13T01:29:10.034Z,2.57
2017-06-13T01:31:38.604Z,2.93
2017-06-13T01:34:06.774Z,2.50
2017-06-13T01:36:35.043Z,3.10
2017-06-13T01:39:03.683Z,3.53
2017-06-13T01:41:31.861Z,2.73
2017-06-13T01:44:00.032Z,2.57
2017-06-13T01:46:28.815Z,2.90
2017-06-13T01:48:56.990Z,2.70
2017-06-13T01:51:25.170Z,3.40
2017-06-13T01:53:57.563Z,3.40
2017-06-13T01:56:26.509Z,3.27
2017-06-13T01:58:55.082Z,2.70
2017-06-13T02:01:23.279Z,3.10
2017-06-13T02:03:51.470Z,2.77
2017-06-13T02:06:20.131Z,3.53
2017-06-13T02:08:48.303Z,2.67
2017-06-13T02:11:16.467Z,2.70
2017-06-13T02:13:45.152Z,2.60
2017-06-13T02:16:13.348Z,4.03
2017-06-13T02:18:41.527Z,3.50
2017-06-13T02:21:10.910Z,3.43
2017-06-13T02:23:39.079Z,2.50
2017-06-13T02:26:07.291Z,3.33
2017-06-13T02:28:35.807Z,3.13
2017-06-13T02:31:04.022Z,3.60
2017-06-13T02:33:32.210Z,2.90
2017-06-13T02:36:00.771Z,2.63
2017-06-13T02:38:28.956Z,2.90
2017-06-13T02:40:57.922Z,4.03
2017-06-13T02:43:26.457Z,3.30
2017-06-13T02:45:54.630Z,3.20
2017-06-13T02:48:22.857Z,2.30
2017-06-13T02:50:51.450Z,2.80
2017-06-13T02:53:19.637Z,2.73
2017-06-13T02:55:47.818Z,3.17
2017-06-13T02:58:17.121Z,3.07
2017-06-13T03:00:45.318Z,2.97
2017-06-13T03:03:13.498Z,2.77
2017-06-13T03:05:42.218Z,2.60
2017-06-13T03:08:10.429Z,2.80
2017-06-13T03:10:39.376Z,2.67
2017-06-13T03:13:07.956Z,2.43
2017-06-13T03:15:36.134Z,2.83
2017-06-13T03:18:04.310Z,2.40
2017-06-13T03:20:33.097Z,2.70
2017-06-13T03:23:01.307Z,2.97
2017-06-13T03:25:30.259Z,2.63
2017-06-13T03:27:58.863Z,2.80
2017-06-13T03:30:27.041Z,2.87
2017-06-13T03:32:56.021Z,2.93
2017-06-13T03:35:24.646Z,2.43
2017-06-13T03:37:52.809Z,3.30
2017-06-13T03:40:21.752Z,2.30
2017-06-13T03:42:50.435Z,2.80
2017-06-13T03:45:18.698Z,3.53
2017-06-13T03:47:46.930Z,2.73
2017-06-13T03:50:16.405Z,2.80
2017-06-13T03:52:44.619Z,2.30
2017-06-13T03:55:12.857Z,2.90
2017-06-13T03:57:42.841Z,3.70
2017-06-13T04:00:11.166Z,4.70
2017-06-13T04:02:39.356Z,2.63
2017-06-13T04:05:08.005Z,2.90
2017-06-13T04:07:36.198Z,3.33
2017-06-13T04:10:04.473Z,3.37
2017-06-13T04:12:33.050Z,3.47
2017-06-13T04:15:02.078Z,3.10
2017-06-13T04:17:30.350Z,2.70
2017-06-13T04:19:58.919Z,3.03
2017-06-13T04:22:27.115Z,2.80
2017-06-13T04:24:55.343Z,3.87
2017-06-13T04:27:24.638Z,4.10
2017-06-13T04:29:52.872Z,2.87
2017-06-13T04:32:21.169Z,2.50
2017-06-13T04:34:50.198Z,3.20
2017-06-13T04:37:18.377Z,2.97
2017-06-13T04:39:46.578Z,3.50
2017-06-13T04:42:15.101Z,2.67
2017-06-13T04:44:43.282Z,2.80
2017-06-13T04:47:11.438Z,3.80
2017-06-13T04:49:40.069Z,3.73
2017-06-13T04:52:08.367Z,2.33
2017-06-13T04:54:36.619Z,2.60
2017-06-13T04:57:05.182Z,3.17
2017-06-13T04:59:34.194Z,3.50
2017-06-13T05:02:02.369Z,2.87
2017-06-13T05:04:31.006Z,2.80
2017-06-13T05:06:59.199Z,2.73
2017-06-13T05:09:27.437Z,3.07
2017-06-13T05:11:55.978Z,3.13
2017-06-13T05:14:24.706Z,2.63
2017-06-13T05:16:52.900Z,3.70
2017-06-13T05:19:21.499Z,2.63
2017-06-13T05:21:49.701Z,2.90
2017-06-13T05:24:17.911Z,2.70
2017-06-13T05:26:46.451Z,2.93
2017-06-13T05:29:14.630Z,4.23
2017-06-13T05:31:42.919Z,2.07
2017-06-13T05:34:11.422Z,3.10
2017-06-13T05:36:39.642Z,3.63
2017-06-13T05:39:07.844Z,2.67
2017-06-13T05:41:36.770Z,2.70
2017-06-13T05:44:05.015Z,2.10
2017-06-13T05:46:33.178Z,3.10
2017-06-13T05:49:01.714Z,3.40
2017-06-13T05:51:30.683Z,3.20
2017-06-13T05:53:58.866Z,2.97
2017-06-13T05:56:27.439Z,2.93
2017-06-13T05:58:55.665Z,2.70
2017-06-13T06:01:23.879Z,3.50
2017-06-13T06:03:52.461Z,4.00
2017-06-13T06:06:20.659Z,3.83
2017-06-13T06:08:48.873Z,2.73
2017-06-13T06:11:17.516Z,3.17
2017-06-13T06:13:45.710Z,3.00
2017-06-13T06:16:13.929Z,3.97
2017-06-13T06:18:42.633Z,2.60
2017-06-13T06:21:10.826Z,3.93
2017-06-13T06:23:39.095Z,3.67
2017-06-13T06:26:07.755Z,2.97
2017-06-13T06:28:35.943Z,3.57
2017-06-13T06:31:04.962Z,2.47
2017-06-13T06:33:33.795Z,3.73
2017-06-13T06:36:01.995Z,3.13
2017-06-13T06:38:30.196Z,2.90
2017-06-13T06:40:59.667Z,3.00
2017-06-13T06:43:27.872Z,3.43
2017-06-13T06:45:56.065Z,3.70
2017-06-13T06:48:25.416Z,3.30
2017-06-13T06:50:53.604Z,3.40
2017-06-13T06:53:21.777Z,3.70
2017-06-13T06:55:50.949Z,3.80
2017-06-13T06:58:19.251Z,3.73
2017-06-13T07:00:48.286Z,3.90
2017-06-13T07:03:16.811Z,3.90
2017-06-13T07:05:45.081Z,3.83
2017-06-13T07:08:13.319Z,3.17
2017-06-13T07:10:42.470Z,4.00
2017-06-13T07:13:10.787Z,4.60
2017-06-13T07:15:39.327Z,2.77
2017-06-13T07:18:08.370Z,4.10
2017-06-13T07:20:36.940Z,4.20
2017-06-13T07:23:05.238Z,3.53
2017-06-13T07:25:33.758Z,3.97
2017-06-13T07:28:02.595Z,3.93
2017-06-13T07:30:31.233Z,4.27
2017-06-13T07:32:59.856Z,3.60
2017-06-13T07:35:28.186Z,3.67
2017-06-13T07:37:57.913Z,4.67
2017-06-13T07:40:26.754Z,4.20
2017-06-13T07:42:55.337Z,6.40
2017-06-13T07:45:24.346Z,3.90
2017-06-13T07:47:53.170Z,4.00
2017-06-13T07:50:21.834Z,4.17
2017-06-13T07:52:50.957Z,4.57
2017-06-13T07:55:20.049Z,4.40
2017-06-13T07:57:48.525Z,4.37
2017-06-13T08:00:17.401Z,3.73
2017-06-13T08:02:47.072Z,3.57
2017-06-13T08:05:15.881Z,4.60
2017-06-13T08:07:44.225Z,4.73
2017-06-13T08:10:13.902Z,4.80
2017-06-13T08:12:42.551Z,4.47
2017-06-13T08:15:12.403Z,3.93
2017-06-13T08:17:42.227Z,4.03
2017-06-13T08:20:10.427Z,3.60
2017-06-13T08:22:38.591Z,3.20
2017-06-13T08:25:07.946Z,4.37
2017-06-13T08:27:36.569Z,4.30
2017-06-13T08:30:05.691Z,3.50
2017-06-13T08:32:34.299Z,4.37
2017-06-13T08:35:02.946Z,4.40
2017-06-13T08:37:31.480Z,4.60
2017-06-13T08:40:00.022Z,3.23
2017-06-13T08:42:28.296Z,4.00
2017-06-13T08:44:57.432Z,4.30
2017-06-13T08:47:26.374Z,4.17
2017-06-13T08:49:54.565Z,5.47
2017-06-13T08:52:22.808Z,4.00
2017-06-13T08:54:54.174Z,4.70
2017-06-13T08:57:22.570Z,3.90
2017-06-13T08:59:51.708Z,3.90
2017-06-13T09:02:20.627Z,3.83
2017-06-13T09:17:39.772Z,4.93
2017-06-13T09:20:08.468Z,4.30
2017-06-13T09:22:37.865Z,3.23
2017-06-13T09:25:07.130Z,3.50
2017-06-13T09:27:36.066Z,4.50
2017-06-13T09:30:04.629Z,4.00
2017-06-13T09:32:33.706Z,4.23
2017-06-13T09:35:02.595Z,3.90
2017-06-13T09:37:30.998Z,4.17
2017-06-13T09:40:00.595Z,4.77
2017-06-13T09:42:28.791Z,3.80
2017-06-13T09:44:58.966Z,3.37
2017-06-13T09:47:28.190Z,6.70
2017-06-13T09:49:56.971Z,3.97
2017-06-13T09:52:25.767Z,4.17
2017-06-13T09:54:55.101Z,4.37
2017-06-13T09:57:25.440Z,3.97
2017-06-13T09:59:53.692Z,3.70
2017-06-13T10:02:22.307Z,3.57
2017-06-13T10:04:50.811Z,3.87
2017-06-13T10:07:19.076Z,4.43
2017-06-13T10:09:48.077Z,4.40
2017-06-13T10:12:16.885Z,4.77
2017-06-13T10:14:45.921Z,4.50
2017-06-13T10:17:14.479Z,3.80
2017-06-13T10:19:43.194Z,4.37
2017-06-13T10:22:12.229Z,4.37
2017-06-13T10:24:43.118Z,4.00
2017-06-13T10:27:11.301Z,3.87
2017-06-13T10:29:40.262Z,4.33
2017-06-13T10:32:08.882Z,4.37
2017-06-13T10:34:37.288Z,4.30
2017-06-13T10:37:05.455Z,4.20
2017-06-13T10:39:33.981Z,4.57
2017-06-13T10:42:02.157Z,3.87
2017-06-13T10:44:30.467Z,4.03
2017-06-13T10:46:59.941Z,4.50
2017-06-13T10:49:28.120Z,5.20
2017-06-13T10:51:56.307Z,4.90
2017-06-13T10:54:25.621Z,5.80
2017-06-13T10:56:53.790Z,6.53
2017-06-13T10:59:21.986Z,5.83
2017-06-13T11:01:50.612Z,5.93
2017-06-13T11:04:18.815Z,5.30
2017-06-13T11:06:47.035Z,6.87
2017-06-13T11:09:15.552Z,5.37
2017-06-13T11:11:43.856Z,5.20
2017-06-13T11:14:12.015Z,6.23
2017-06-13T11:16:40.664Z,6.13
2017-06-13T11:19:08.836Z,4.50
2017-06-13T11:21:37.048Z,5.17
2017-06-13T11:24:05.586Z,4.27
2017-06-13T11:26:33.778Z,5.13
2017-06-13T11:29:01.946Z,6.40
2017-06-13T11:31:31.336Z,5.33
2017-06-13T11:33:59.575Z,5.20
2017-06-13T11:36:27.764Z,5.47
2017-06-13T11:38:56.371Z,5.00
2017-06-13T11:41:24.576Z,4.63
2017-06-13T11:43:53.533Z,5.73
2017-06-13T11:46:22.123Z,5.30
2017-06-13T11:48:50.339Z,4.00
2017-06-13T11:51:18.537Z,4.83
2017-06-13T11:53:47.244Z,4.10
2017-06-13T11:56:15.409Z,4.67
2017-06-13T11:58:43.598Z,4.40
2017-06-13T12:01:12.211Z,5.20
2017-06-13T12:03:41.184Z,4.80
2017-06-13T12:06:09.366Z,3.50
2017-06-13T12:08:37.953Z,3.80
2017-06-13T12:11:06.150Z,4.40
2017-06-13T12:13:34.325Z,4.53
2017-06-13T12:16:03.015Z,4.27
2017-06-13T12:18:31.200Z,4.27
2017-06-13T12:20:59.591Z,4.53
2017-06-13T12:23:28.103Z,3.53
2017-06-13T12:25:56.279Z,5.33
2017-06-13T12:28:24.456Z,4.50
2017-06-13T12:30:53.845Z,4.50
2017-06-13T12:33:22.327Z,5.73
2017-06-13T12:35:50.505Z,4.40
2017-06-13T12:38:19.093Z,4.20
2017-06-13T12:40:47.289Z,4.50
2017-06-13T12:43:15.494Z,4.90
2017-06-13T12:45:44.218Z,4.60
2017-06-13T12:48:12.978Z,4.23
2017-06-13T12:50:41.161Z,4.10
2017-06-13T12:53:09.777Z,4.30
2017-06-13T12:55:37.982Z,3.67
2017-06-13T12:58:06.187Z,4.97
2017-06-13T13:00:34.847Z,4.07
2017-06-13T13:03:03.054Z,4.40
2017-06-13T13:05:31.270Z,4.60
2017-06-13T13:07:59.797Z,3.87
2017-06-13T13:10:28.002Z,4.27
2017-06-13T13:12:56.212Z,4.43
2017-06-13T13:15:24.757Z,3.83
2017-06-13T13:20:28.675Z,3.83
2017-06-13T13:22:56.846Z,3.50
2017-06-13T13:25:25.034Z,4.20
2017-06-13T13:27:54.396Z,3.93
2017-06-13T13:30:22.617Z,3.73
2017-06-13T13:32:50.834Z,4.87
2017-06-13T13:35:20.166Z,4.03
2017-06-13T13:37:48.330Z,4.30
2017-06-13T13:40:16.528Z,3.57
2017-06-13T13:42:45.063Z,4.60
2017-06-13T13:45:13.323Z,3.80
2017-06-13T13:47:41.526Z,4.30
2017-06-13T13:50:11.694Z,4.17
2017-06-13T13:52:40.610Z,3.93
2017-06-13T13:55:08.840Z,4.60
2017-06-13T13:57:38.219Z,4.17
2017-06-13T14:00:06.440Z,3.80
2017-06-13T14:02:34.669Z,4.07
2017-06-13T14:05:03.216Z,4.00
2017-06-13T14:07:31.491Z,3.97
2017-06-13T14:09:59.674Z,4.27
2017-06-13T14:12:28.222Z,4.27
2017-06-13T14:14:56.453Z,4.67
2017-06-13T14:17:24.614Z,4.90
2017-06-13T14:19:53.132Z,3.80
2017-06-13T14:22:21.552Z,4.40
2017-06-13T14:24:49.951Z,4.63
2017-06-13T14:27:18.474Z,4.27
2017-06-13T14:29:46.649Z,4.83
2017-06-13T14:32:14.832Z,3.17
2017-06-13T14:34:43.517Z,3.40
2017-06-13T14:37:11.710Z,3.53
2017-06-13T14:39:39.995Z,4.00
2017-06-13T14:42:08.691Z,3.43
2017-06-13T14:44:36.894Z,3.47
2017-06-13T14:47:06.063Z,3.50
2017-06-13T14:49:34.600Z,3.00
2017-06-13T14:52:02.811Z,3.27
2017-06-13T14:54:31.237Z,3.60
2017-06-13T14:56:59.890Z,3.53
2017-06-13T14:59:28.973Z,3.90
2017-06-13T15:01:57.152Z,3.03
2017-06-13T15:04:25.746Z,3.13
2017-06-13T15:06:53.924Z,3.47
2017-06-13T15:09:22.169Z,3.43
2017-06-13T15:11:50.849Z,4.90
2017-06-13T15:14:19.046Z,3.37
2017-06-13T15:16:47.290Z,4.27
2017-06-13T15:19:15.813Z,3.20
2017-06-13T15:21:43.996Z,2.90
2017-06-13T15:24:12.268Z,3.53
2017-06-13T15:26:40.847Z,3.67
2017-06-13T15:29:09.115Z,2.60
2017-06-13T15:31:37.297Z,3.37
2017-06-13T15:34:05.885Z,2.90
2017-06-13T15:36:34.131Z,2.77
2017-06-13T15:39:02.380Z,4.03
2017-06-13T15:41:30.925Z,3.30
2017-06-13T15:43:59.870Z,3.10
2017-06-13T15:46:28.044Z,3.20
2017-06-13T15:48:56.601Z,3.37
2017-06-13T15:51:24.812Z,3.33
2017-06-13T15:53:53.027Z,3.60
2017-06-13T15:56:22.399Z,3.40
2017-06-13T15:58:50.594Z,3.07
2017-06-13T16:01:19.610Z,3.30
2017-06-13T16:03:48.168Z,3.60
2017-06-13T16:06:17.162Z,5.50
2017-06-13T16:08:46.133Z,4.17
2017-06-13T16:11:15.530Z,3.60
2017-06-13T16:13:43.711Z,3.10
2017-06-13T16:16:11.909Z,3.17
2017-06-13T16:18:40.480Z,3.07
2017-06-13T16:21:08.718Z,3.50
2017-06-13T16:23:37.911Z,3.00
2017-06-13T16:26:06.501Z,3.67
2017-06-13T16:28:34.686Z,3.97
2017-06-13T16:31:02.894Z,4.23
2017-06-13T16:33:31.661Z,3.10
2017-06-13T16:35:59.862Z,3.77
2017-06-13T16:38:28.016Z,3.47
2017-06-13T16:40:57.294Z,3.17
2017-06-13T16:43:25.507Z,3.67
2017-06-13T16:45:53.734Z,3.30
2017-06-13T16:48:22.663Z,3.70
2017-06-13T16:50:51.619Z,2.80
2017-06-13T16:53:19.798Z,3.63
2017-06-13T16:55:48.327Z,3.53
2017-06-13T16:58:16.506Z,3.90
2017-06-13T17:00:45.689Z,4.60
2017-06-13T17:03:14.346Z,4.07
2017-06-13T17:05:42.538Z,4.60
2017-06-13T17:08:10.860Z,4.07
2017-06-13T17:10:39.478Z,3.73
2017-06-13T17:13:08.504Z,3.00
2017-06-13T17:15:36.689Z,3.47
2017-06-13T17:18:05.326Z,3.37
2017-06-13T17:20:33.578Z,3.30
2017-06-13T17:23:01.831Z,3.67
2017-06-13T17:25:30.393Z,3.53
2017-06-13T17:27:58.602Z,2.87
2017-06-13T17:30:26.805Z,4.03
2017-06-13T17:32:55.373Z,3.90
2017-06-13T17:35:23.613Z,3.40
2017-06-13T17:37:51.815Z,4.40
2017-06-13T17:40:20.386Z,3.60
2017-06-13T17:42:48.600Z,3.20
2017-06-13T17:45:17.592Z,3.30
2017-06-13T17:47:46.939Z,3.37
2017-06-13T17:50:15.194Z,2.83
2017-06-13T17:52:43.408Z,2.70
2017-06-13T17:55:11.934Z,2.63
2017-06-13T17:57:40.124Z,3.20
2017-06-13T18:00:09.127Z,3.07
2017-06-13T18:02:37.786Z,2.53
2017-06-13T18:05:06.074Z,2.90
2017-06-13T18:07:34.307Z,3.23
2017-06-13T18:10:02.880Z,3.13
2017-06-13T18:12:31.110Z,2.37
2017-06-13T18:14:59.319Z,3.20
2017-06-13T18:17:27.800Z,2.90
2017-06-13T18:19:55.999Z,3.67
2017-06-13T18:22:24.243Z,2.70
2017-06-13T18:24:52.682Z,2.93
2017-06-13T18:27:20.935Z,3.33
2017-06-13T18:29:49.958Z,4.43
2017-06-13T18:32:18.329Z,3.63
2017-06-13T18:34:46.545Z,3.17
2017-06-13T18:37:15.225Z,3.50
2017-06-13T18:39:43.637Z,4.40
2017-06-13T18:42:11.935Z,4.77
2017-06-13T18:44:40.145Z,3.90
2017-06-13T18:47:08.617Z,3.50
2017-06-13T18:49:36.826Z,3.63
2017-06-13T18:52:05.067Z,3.30
2017-06-13T18:54:33.447Z,4.37
2017-06-13T18:57:01.646Z,3.93
2017-06-13T18:59:29.907Z,3.30
2017-06-13T19:01:58.323Z,4.17
2017-06-13T19:04:26.536Z,4.60
2017-06-13T19:06:54.714Z,3.30
2017-06-13T19:09:23.182Z,3.60
2017-06-13T19:11:51.394Z,3.97
2017-06-13T19:14:19.678Z,3.07
2017-06-13T19:16:48.127Z,2.83
2017-06-13T19:19:16.349Z,3.80
2017-06-13T19:21:44.573Z,3.33
2017-06-13T19:24:12.983Z,3.60
2017-06-13T19:26:41.247Z,4.00
2017-06-13T19:29:09.481Z,4.37
2017-06-13T19:31:37.867Z,3.60
2017-06-13T19:34:06.076Z,4.53
2017-06-13T19:36:34.300Z,4.57
2017-06-13T19:39:02.693Z,3.83
2017-06-13T19:41:31.004Z,4.80
2017-06-13T19:43:59.225Z,3.50
2017-06-13T19:46:27.718Z,3.93
2017-06-13T19:48:55.964Z,3.60
2017-06-13T19:51:24.988Z,4.43
2017-06-13T19:53:53.531Z,4.00
2017-06-13T19:56:21.757Z,4.00
2017-06-13T19:58:50.771Z,3.60
2017-06-13T20:01:19.226Z,4.03
2017-06-13T20:03:48.164Z,3.70
2017-06-13T20:06:16.379Z,3.50
2017-06-13T20:21:43.641Z,3.50
2017-06-13T20:24:11.834Z,3.50
2017-06-13T20:26:40.007Z,3.50
2017-06-13T20:29:14.249Z,4.10
2017-06-13T20:31:43.217Z,5.10
2017-06-13T20:34:11.463Z,4.00
2017-06-13T20:36:39.892Z,4.70
2017-06-13T20:39:08.827Z,4.60
2017-06-13T20:41:37.057Z,3.90
2017-06-13T20:44:06.241Z,4.90
2017-06-13T20:46:34.498Z,3.90
2017-06-13T20:49:02.684Z,3.83
2017-06-13T20:51:31.164Z,3.73
2017-06-13T20:53:59.346Z,3.77
2017-06-13T20:56:27.536Z,3.37
2017-06-13T20:58:56.726Z,3.80
2017-06-13T21:01:24.960Z,3.33
2017-06-13T21:03:53.283Z,3.53
2017-06-13T21:06:21.675Z,4.10
2017-06-13T21:08:49.896Z,4.20
2017-06-13T21:11:18.117Z,3.40
2017-06-13T21:13:47.227Z,4.00
2017-06-13T21:16:15.434Z,4.30
2017-06-13T21:18:43.614Z,3.90
2017-06-13T21:21:12.025Z,4.03
2017-06-13T21:23:40.985Z,3.80
2017-06-13T21:26:09.210Z,3.57
2017-06-13T21:28:37.766Z,4.00
2017-06-13T21:31:05.985Z,4.37
2017-06-13T21:33:34.264Z,2.93
2017-06-13T21:36:03.428Z,4.50
2017-06-13T21:38:31.634Z,4.60
2017-06-13T21:40:59.928Z,4.47
2017-06-13T21:43:28.322Z,4.90
2017-06-13T21:45:56.520Z,4.77
2017-06-13T21:48:25.512Z,5.30
2017-06-13T21:50:54.894Z,4.57
2017-06-13T21:53:23.084Z,4.70
2017-06-13T21:55:52.157Z,4.97
2017-06-13T21:58:20.566Z,5.77
2017-06-13T22:00:49.720Z,4.97
2017-06-13T22:03:17.933Z,6.20
2017-06-13T22:05:46.327Z,6.80
2017-06-13T22:08:14.544Z,6.47
2017-06-13T22:10:42.735Z,6.67
2017-06-13T22:13:11.167Z,5.93
2017-06-13T22:15:39.358Z,6.30
2017-06-13T22:18:07.590Z,6.40
2017-06-13T22:20:36.006Z,7.57
2017-06-13T22:23:04.191Z,6.30
2017-06-13T22:25:32.416Z,6.70
2017-06-13T22:28:00.838Z,5.17
2017-06-13T22:30:29.059Z,6.63
2017-06-13T22:32:57.255Z,6.70
2017-06-13T22:35:25.656Z,5.10
2017-06-13T22:37:54.097Z,5.60
2017-06-13T22:40:23.053Z,6.43
2017-06-13T22:42:51.469Z,6.20
2017-06-13T22:45:19.662Z,7.47
2017-06-13T22:47:47.870Z,6.13
2017-06-13T22:50:16.270Z,5.73
2017-06-13T22:52:44.452Z,5.90
2017-06-13T22:55:13.466Z,7.33
2017-06-13T22:57:41.823Z,6.23
2017-06-13T23:00:10.786Z,7.17
2017-06-13T23:02:38.991Z,6.70
2017-06-13T23:05:07.413Z,6.73
2017-06-13T23:07:35.649Z,7.70
2017-06-13T23:10:03.850Z,6.50
2017-06-13T23:12:32.222Z,7.10
2017-06-13T23:15:00.435Z,6.80
2017-06-13T23:17:28.612Z,7.03
2017-06-13T23:19:56.982Z,7.23
2017-06-13T23:22:25.179Z,6.47
2017-06-13T23:24:53.374Z,6.97
2017-06-13T23:27:21.738Z,6.43
2017-06-13T23:29:49.938Z,5.70
2017-06-13T23:32:18.149Z,6.60
2017-06-13T23:34:46.502Z,6.50
2017-06-13T23:37:14.701Z,6.33
2017-06-13T23:39:42.877Z,6.47
2017-06-13T23:42:11.216Z,6.90
2017-06-13T23:44:39.390Z,5.67
2017-06-13T23:47:07.613Z,6.03
2017-06-13T23:49:35.971Z,6.30
2017-06-13T23:52:04.186Z,6.20
2017-06-13T23:54:32.365Z,5.60
2017-06-13T23:57:01.500Z,5.60
2017-06-13T23:59:29.724Z,5.70
